Wallace, North Carolina
Current Conditions -  °F | °C
As of 8:35 AM on Friday 28 Nov 2014 (Local Time) from KDPL Reporting Station
Clear Clear  
Wind Chill: 29°   Ceiling: Unl
Heat Index: 35°   Visibility: 10mi
Dew Point: 26°   Wind: 7mph
Humidity: 69%   Direction: 330°NNW
Pressure: 30.36"   Gusts: NA
Location:  34.74°N, 78°W
Report Text: KDPL 281335Z AUTO 33006KT 10SM CLR 02/M04 A3036 RMK AO2 T00151036
Loading
Personal Weather Stations






























Interactive Weather Map New forecast layout! Learn more

10-Day Weather Forecast

Advertisements
Track Severe Weather on mobile